createdAt,value
2019-06-27T00:01:49.925Z,34.95
2019-06-27T00:04:19.880Z,33.60
2019-06-27T00:06:49.789Z,33.10
2019-06-27T00:09:20.361Z,20.57
2019-06-27T00:11:50.344Z,15.78
2019-06-27T00:14:20.246Z,13.48
2019-06-27T00:16:50.256Z,14.28
2019-06-27T00:19:20.165Z,30.37
2019-06-27T00:21:50.141Z,28.83
2019-06-27T00:24:20.044Z,13.32
2019-06-27T00:26:57.246Z,10.65
2019-06-27T00:29:21.579Z,21.60
2019-06-27T00:31:51.505Z,11.68
2019-06-27T00:34:21.444Z,8.93
2019-06-27T00:36:51.374Z,9.23
2019-06-27T00:39:21.327Z,8.63
2019-06-27T00:41:50.779Z,9.68
2019-06-27T00:44:20.614Z,8.65
2019-06-27T00:46:50.524Z,9.18
2019-06-27T00:49:20.454Z,12.00
2019-06-27T00:51:50.447Z,9.43
2019-06-27T00:54:20.356Z,9.35
2019-06-27T00:56:50.448Z,10.25
2019-06-27T00:59:20.504Z,8.88
2019-06-27T01:09:36.892Z,8.78
2019-06-27T01:14:48.631Z,9.40
2019-06-27T01:19:53.804Z,8.30
2019-06-27T01:24:59.129Z,9.03
2019-06-27T01:27:30.500Z,9.53
2019-06-27T01:30:00.608Z,7.72
2019-06-27T01:37:42.221Z,8.85
2019-06-27T01:40:12.391Z,8.28
2019-06-27T01:42:42.385Z,8.48
2019-06-27T01:45:30.944Z,8.40
2019-06-27T01:48:00.842Z,8.75
2019-06-27T01:50:30.824Z,9.33
2019-06-27T01:53:00.773Z,8.45
2019-06-27T01:55:30.736Z,9.28
2019-06-27T01:58:00.745Z,8.30
2019-06-27T02:00:30.921Z,7.92
2019-06-27T02:05:36.624Z,7.87
2019-06-27T02:08:10.912Z,8.63
2019-06-27T02:10:41.120Z,7.65
2019-06-27T02:13:16.340Z,8.03
2019-06-27T02:15:46.424Z,8.00
2019-06-27T02:18:16.411Z,7.67
2019-06-27T02:20:46.316Z,7.65
2019-06-27T02:23:16.410Z,8.50
2019-06-27T02:25:46.375Z,8.10
2019-06-27T02:28:16.360Z,7.33
2019-06-27T02:30:46.808Z,7.87
2019-06-27T02:33:16.702Z,7.28
2019-06-27T02:35:46.617Z,6.92
2019-06-27T02:38:16.572Z,7.22
2019-06-27T02:40:46.449Z,8.08
2019-06-27T02:43:16.533Z,7.65
2019-06-27T02:45:46.494Z,7.12
2019-06-27T02:48:16.508Z,7.87
2019-06-27T02:50:46.455Z,7.10
2019-06-27T02:53:16.349Z,7.83
2019-06-27T02:55:46.238Z,6.97
2019-06-27T02:58:29.606Z,7.95
2019-06-27T03:00:47.721Z,7.15
2019-06-27T03:03:17.682Z,7.58
2019-06-27T03:05:47.573Z,7.15
2019-06-27T03:08:17.579Z,7.20
2019-06-27T03:10:47.540Z,7.70
2019-06-27T03:13:17.609Z,7.33
2019-06-27T03:15:47.525Z,7.60
2019-06-27T03:18:17.447Z,7.25
2019-06-27T03:20:47.498Z,6.60
2019-06-27T03:23:17.478Z,6.85
2019-06-27T03:25:47.381Z,7.37
2019-06-27T03:28:17.277Z,6.83
2019-06-27T03:30:47.309Z,7.20
2019-06-27T03:33:17.389Z,6.55
2019-06-27T03:35:47.335Z,7.05
2019-06-27T03:38:17.269Z,6.95
2019-06-27T03:40:47.356Z,8.10
2019-06-27T03:43:17.281Z,7.17
2019-06-27T03:45:47.258Z,7.12
2019-06-27T03:48:17.748Z,7.60
2019-06-27T03:50:47.659Z,6.70
2019-06-27T03:53:17.624Z,6.70
2019-06-27T03:55:47.563Z,6.72
2019-06-27T03:58:17.570Z,6.65
2019-06-27T04:00:47.618Z,7.50
2019-06-27T04:03:17.529Z,6.65
2019-06-27T04:05:47.474Z,7.17
2019-06-27T04:08:17.400Z,7.20
2019-06-27T04:10:47.494Z,6.78
2019-06-27T04:13:17.641Z,7.30
2019-06-27T04:15:47.100Z,6.58
2019-06-27T04:18:16.990Z,7.12
2019-06-27T04:20:46.970Z,7.03
2019-06-27T04:23:16.888Z,6.62
2019-06-27T04:25:46.940Z,6.58
2019-06-27T04:28:17.185Z,6.40
2019-06-27T04:30:47.197Z,6.55
2019-06-27T04:33:17.212Z,6.50
2019-06-27T04:35:47.176Z,6.60
2019-06-27T04:38:17.080Z,8.48
2019-06-27T04:40:46.995Z,12.58
2019-06-27T04:43:16.876Z,6.75
2019-06-27T04:45:46.821Z,8.40
2019-06-27T04:48:16.686Z,8.33
2019-06-27T04:50:46.594Z,9.43
2019-06-27T04:53:16.551Z,8.08
2019-06-27T04:55:46.563Z,8.23
2019-06-27T04:58:16.456Z,7.80
2019-06-27T05:00:46.370Z,8.30
2019-06-27T05:03:16.568Z,7.12
2019-06-27T05:05:46.555Z,7.62
2019-06-27T05:08:16.441Z,6.97
2019-06-27T05:10:46.370Z,7.37
2019-06-27T05:13:16.252Z,6.83
2019-06-27T05:15:46.193Z,7.22
2019-06-27T05:18:16.130Z,6.30
2019-06-27T05:20:46.152Z,6.10
2019-06-27T05:23:16.044Z,6.85
2019-06-27T05:25:45.925Z,5.35
2019-06-27T05:28:15.808Z,5.83
2019-06-27T05:30:45.720Z,5.72
2019-06-27T05:33:15.703Z,7.00
2019-06-27T05:35:45.604Z,5.85
2019-06-27T05:38:15.504Z,6.55
2019-06-27T05:40:45.450Z,6.95
2019-06-27T05:43:15.431Z,5.67
2019-06-27T05:45:45.322Z,5.45
2019-06-27T05:48:15.389Z,5.83
2019-06-27T05:50:45.265Z,6.28
2019-06-27T05:53:15.296Z,5.10
2019-06-27T05:55:45.284Z,5.53
2019-06-27T05:58:15.271Z,5.75
2019-06-27T06:00:45.151Z,5.72
2019-06-27T06:03:15.071Z,6.05
2019-06-27T06:05:44.988Z,5.65
2019-06-27T06:08:14.903Z,5.53
2019-06-27T06:10:44.802Z,6.12
2019-06-27T06:13:14.761Z,5.50
2019-06-27T06:15:44.875Z,5.83
2019-06-27T06:18:15.163Z,5.62
2019-06-27T06:20:45.084Z,5.28
2019-06-27T06:23:15.083Z,5.22
2019-06-27T06:25:45.096Z,5.45
2019-06-27T06:28:15.369Z,5.35
2019-06-27T06:30:45.493Z,5.37
2019-06-27T06:33:15.588Z,5.70
2019-06-27T06:35:45.545Z,5.60
2019-06-27T06:38:15.420Z,5.55
2019-06-27T06:40:45.610Z,5.53
2019-06-27T06:43:16.255Z,5.33
2019-06-27T06:45:46.220Z,5.70
2019-06-27T06:48:16.188Z,5.25
2019-06-27T06:50:52.203Z,5.60
2019-06-27T06:53:22.151Z,4.95
2019-06-27T06:55:52.400Z,5.50
2019-06-27T06:58:22.351Z,5.08
2019-06-27T07:01:01.482Z,4.95
2019-06-27T07:03:23.902Z,5.03
2019-06-27T07:05:53.829Z,5.15
2019-06-27T07:08:23.804Z,5.15
2019-06-27T07:10:53.670Z,5.08
2019-06-27T07:13:23.840Z,5.08
2019-06-27T07:15:53.731Z,5.97
2019-06-27T07:18:23.728Z,4.62
2019-06-27T07:20:53.596Z,5.33
2019-06-27T07:23:23.470Z,5.85
2019-06-27T07:25:53.412Z,5.10
2019-06-27T07:28:23.314Z,6.10
2019-06-27T07:30:53.197Z,6.53
2019-06-27T07:33:23.121Z,5.85
2019-06-27T07:35:53.040Z,5.58
2019-06-27T07:38:22.977Z,6.25
2019-06-27T07:40:52.944Z,4.60
2019-06-27T07:43:22.879Z,5.22
2019-06-27T07:45:52.955Z,5.58
2019-06-27T07:48:22.941Z,5.97
2019-06-27T07:50:52.939Z,5.17
2019-06-27T07:53:22.974Z,5.08
2019-06-27T07:55:52.955Z,5.78
2019-06-27T07:58:22.872Z,5.60
2019-06-27T08:00:52.817Z,4.92
2019-06-27T08:03:22.790Z,5.10
2019-06-27T08:05:52.776Z,5.10
2019-06-27T08:08:22.778Z,5.58
2019-06-27T08:10:52.875Z,5.90
2019-06-27T08:13:23.042Z,5.47
2019-06-27T08:15:52.943Z,5.35
2019-06-27T08:18:22.992Z,5.47
2019-06-27T08:20:52.922Z,5.80
2019-06-27T08:23:22.916Z,5.30
2019-06-27T08:25:52.913Z,4.60
2019-06-27T08:28:22.851Z,5.40
2019-06-27T08:30:52.895Z,5.00
2019-06-27T08:33:22.970Z,5.10
2019-06-27T08:35:53.057Z,5.40
2019-06-27T08:38:23.070Z,5.15
2019-06-27T08:40:53.003Z,5.75
2019-06-27T08:43:22.892Z,5.80
2019-06-27T08:45:53.000Z,4.70
2019-06-27T08:48:23.011Z,4.33
2019-06-27T08:50:53.056Z,4.53
2019-06-27T08:53:23.114Z,4.72
2019-06-27T08:55:53.166Z,4.47
2019-06-27T08:58:23.112Z,4.53
2019-06-27T09:00:53.094Z,5.00
2019-06-27T09:03:23.135Z,4.58
2019-06-27T09:05:53.073Z,4.62
2019-06-27T09:08:23.036Z,4.00
2019-06-27T09:10:52.991Z,4.20
2019-06-27T09:13:23.068Z,4.47
2019-06-27T09:15:52.995Z,4.40
2019-06-27T09:18:22.909Z,3.60
2019-06-27T09:20:52.951Z,3.25
2019-06-27T09:23:23.067Z,4.00
2019-06-27T09:25:53.064Z,4.00
2019-06-27T09:28:22.994Z,3.72
2019-06-27T09:30:52.929Z,3.83
2019-06-27T09:33:22.895Z,3.90
2019-06-27T09:35:52.853Z,3.33
2019-06-27T09:38:22.858Z,3.65
2019-06-27T09:40:52.710Z,3.42
2019-06-27T09:43:22.701Z,3.22
2019-06-27T09:45:52.736Z,3.20
2019-06-27T09:48:22.714Z,3.25
2019-06-27T09:50:52.677Z,3.35
2019-06-27T09:53:22.668Z,3.22
2019-06-27T09:55:52.728Z,3.70
2019-06-27T09:58:22.607Z,2.80
2019-06-27T10:00:52.631Z,2.72
2019-06-27T10:03:22.538Z,2.85
2019-06-27T10:05:52.825Z,2.52
2019-06-27T10:08:22.807Z,2.72
2019-06-27T10:10:52.711Z,3.02
2019-06-27T10:13:22.607Z,2.80
2019-06-27T10:15:52.545Z,2.60
2019-06-27T10:18:22.578Z,2.70
2019-06-27T10:20:52.484Z,2.42
2019-06-27T10:23:22.372Z,2.40
2019-06-27T10:25:52.326Z,2.55
2019-06-27T10:28:22.223Z,2.40
2019-06-27T10:30:52.128Z,2.50
2019-06-27T10:33:22.084Z,2.58
2019-06-27T10:35:52.120Z,3.00
2019-06-27T10:38:22.011Z,2.80
2019-06-27T10:40:51.898Z,2.42
2019-06-27T10:43:21.863Z,2.90
2019-06-27T10:45:51.864Z,2.52
2019-06-27T10:48:21.972Z,2.70
2019-06-27T10:50:54.635Z,10.50
2019-06-27T10:53:23.567Z,5.72
2019-06-27T10:55:53.559Z,11.22
2019-06-27T10:58:23.503Z,3.37
2019-06-27T11:00:53.386Z,3.80
2019-06-27T11:03:23.298Z,5.05
2019-06-27T11:05:53.176Z,4.40
2019-06-27T11:08:23.049Z,25.72
2019-06-27T11:10:53.043Z,11.73
2019-06-27T11:13:23.028Z,3.85
2019-06-27T11:15:52.880Z,5.08
2019-06-27T11:18:22.875Z,4.75
2019-06-27T11:20:53.081Z,5.55
2019-06-27T11:23:23.087Z,5.45
2019-06-27T11:25:53.170Z,6.42
2019-06-27T11:28:23.058Z,4.80
2019-06-27T11:30:53.071Z,2.62
2019-06-27T11:33:32.560Z,8.68
2019-06-27T11:35:54.684Z,3.75
2019-06-27T11:38:24.967Z,11.38
2019-06-27T11:40:55.190Z,10.75
2019-06-27T11:43:25.092Z,5.10
2019-06-27T11:45:54.972Z,2.92
2019-06-27T11:48:24.864Z,4.30
2019-06-27T11:50:54.814Z,2.50
2019-06-27T11:53:24.711Z,3.95
2019-06-27T11:55:54.587Z,2.98
2019-06-27T11:58:24.794Z,9.83
2019-06-27T12:00:54.703Z,4.62
2019-06-27T12:03:24.615Z,2.15
2019-06-27T12:05:54.550Z,5.25
2019-06-27T12:08:24.435Z,7.85
2019-06-27T12:10:54.443Z,7.00
2019-06-27T12:13:24.335Z,63.87
2019-06-27T12:15:54.265Z,16.48
2019-06-27T12:18:24.231Z,18.48
2019-06-27T12:20:54.279Z,25.02
2019-06-27T12:23:24.193Z,7.17
2019-06-27T12:25:54.236Z,16.57
2019-06-27T12:28:24.135Z,5.17
2019-06-27T12:30:54.196Z,13.22
2019-06-27T12:33:24.131Z,14.75
2019-06-27T12:35:54.128Z,19.87
2019-06-27T12:38:25.323Z,5.20
2019-06-27T12:40:55.321Z,24.50
2019-06-27T12:43:25.203Z,5.12
2019-06-27T12:45:55.104Z,2.67
2019-06-27T12:48:25.000Z,15.38
2019-06-27T12:50:55.005Z,14.18
2019-06-27T12:53:25.055Z,2.87
2019-06-27T12:55:54.921Z,5.87
2019-06-27T12:58:24.992Z,8.58
2019-06-27T13:00:54.961Z,10.25
2019-06-27T13:03:24.860Z,6.78
2019-06-27T13:05:54.771Z,4.05
2019-06-27T13:08:24.757Z,3.87
2019-06-27T13:10:54.687Z,9.00
2019-06-27T13:13:24.656Z,14.43
2019-06-27T13:15:54.609Z,3.40
2019-06-27T13:18:24.487Z,8.30
2019-06-27T13:20:58.463Z,4.75
2019-06-27T13:23:25.948Z,2.45
2019-06-27T13:25:55.925Z,4.20
2019-06-27T13:28:25.870Z,6.80
2019-06-27T13:30:55.809Z,5.20
2019-06-27T13:33:25.672Z,5.83
2019-06-27T13:35:55.625Z,8.03
2019-06-27T13:38:25.492Z,1.27
2019-06-27T13:40:55.408Z,2.25
2019-06-27T13:43:25.428Z,5.53
2019-06-27T13:45:55.326Z,2.35
2019-06-27T13:48:25.283Z,2.12
2019-06-27T13:50:57.640Z,4.90
2019-06-27T13:53:26.891Z,2.92
2019-06-27T13:55:56.779Z,3.98
2019-06-27T13:58:26.660Z,3.95
2019-06-27T14:00:56.550Z,5.28
2019-06-27T14:03:26.433Z,3.05
2019-06-27T14:05:56.415Z,4.55
2019-06-27T14:08:26.486Z,1.90
2019-06-27T14:10:56.505Z,3.77
2019-06-27T14:13:26.475Z,3.20
2019-06-27T14:15:56.360Z,3.47
2019-06-27T14:18:26.227Z,3.35
2019-06-27T14:20:56.196Z,2.02
2019-06-27T14:23:26.072Z,3.65
2019-06-27T14:25:56.026Z,3.50
2019-06-27T14:28:25.944Z,1.50
2019-06-27T14:30:55.841Z,2.30
2019-06-27T14:33:25.938Z,1.50
2019-06-27T14:35:55.813Z,1.07
2019-06-27T14:38:25.705Z,3.17
2019-06-27T14:40:55.579Z,1.90
2019-06-27T14:43:25.469Z,3.22
2019-06-27T14:45:55.359Z,3.42
2019-06-27T14:48:25.231Z,1.70
2019-06-27T14:50:55.175Z,2.30
2019-06-27T14:53:25.206Z,1.70
2019-06-27T14:55:55.147Z,1.30
2019-06-27T14:58:25.015Z,1.70
2019-06-27T15:00:55.011Z,1.67
2019-06-27T15:03:25.133Z,2.60
2019-06-27T15:05:54.674Z,82.12
2019-06-27T15:08:24.438Z,114.70
2019-06-27T15:10:54.431Z,63.87
2019-06-27T15:13:24.443Z,31.55
2019-06-27T15:16:07.426Z,21.87
2019-06-27T15:18:25.940Z,22.70
2019-06-27T15:20:55.876Z,72.45
2019-06-27T15:23:29.003Z,95.77
2019-06-27T15:25:57.491Z,60.70
2019-06-27T15:28:27.395Z,42.10
2019-06-27T15:30:57.459Z,31.33
2019-06-27T15:33:27.460Z,9.95
2019-06-27T15:35:57.420Z,15.05
2019-06-27T15:38:27.299Z,9.45
2019-06-27T15:40:57.195Z,3.10
2019-06-27T15:43:27.083Z,1.67
2019-06-27T15:45:57.087Z,1.92
2019-06-27T15:48:26.959Z,1.62
2019-06-27T15:50:56.920Z,1.20
2019-06-27T15:53:26.806Z,2.15
2019-06-27T15:55:56.808Z,1.72
2019-06-27T15:58:26.816Z,1.90
2019-06-27T16:00:56.810Z,1.70
2019-06-27T16:03:26.754Z,2.02
2019-06-27T16:06:08.648Z,1.00
2019-06-27T16:08:28.290Z,1.50
2019-06-27T16:10:58.166Z,1.37
2019-06-27T16:13:28.079Z,1.00
2019-06-27T16:15:57.960Z,2.22
2019-06-27T16:18:27.843Z,1.60
2019-06-27T16:20:57.736Z,2.25
2019-06-27T16:23:27.630Z,1.57
2019-06-27T16:25:57.514Z,1.42
2019-06-27T16:28:27.552Z,1.50
2019-06-27T16:30:57.479Z,5.00
2019-06-27T16:33:27.368Z,98.33
2019-06-27T16:35:56.865Z,103.10
2019-06-27T16:38:26.815Z,181.00
2019-06-27T16:40:56.738Z,58.33
2019-06-27T16:43:26.712Z,66.40
2019-06-27T16:45:56.702Z,52.95
2019-06-27T16:48:26.605Z,84.05
2019-06-27T16:50:56.583Z,29.60
2019-06-27T16:53:26.481Z,34.20
2019-06-27T16:55:56.590Z,14.28
2019-06-27T16:58:26.512Z,26.65
2019-06-27T17:00:56.545Z,26.65
2019-06-27T17:03:26.538Z,16.93
2019-06-27T17:05:56.519Z,16.10
2019-06-27T17:08:26.388Z,7.22
2019-06-27T17:10:58.654Z,6.00
2019-06-27T17:13:28.019Z,9.80
2019-06-27T17:15:57.971Z,6.22
2019-06-27T17:18:27.965Z,4.40
2019-06-27T17:20:57.959Z,3.40
2019-06-27T17:23:27.855Z,2.10
2019-06-27T17:25:57.814Z,3.70
2019-06-27T17:28:27.683Z,2.45
2019-06-27T17:30:57.584Z,3.50
2019-06-27T17:33:27.475Z,3.80
2019-06-27T17:35:57.372Z,2.17
2019-06-27T17:38:27.336Z,2.37
2019-06-27T17:40:58.095Z,2.37
2019-06-27T17:43:27.963Z,1.80
2019-06-27T17:45:57.903Z,2.65
2019-06-27T17:48:27.791Z,2.67
2019-06-27T17:50:58.510Z,2.00
2019-06-27T17:53:28.413Z,1.87
2019-06-27T17:55:58.423Z,2.77
2019-06-27T17:58:28.304Z,1.77
2019-06-27T18:00:58.209Z,1.95
2019-06-27T18:03:28.083Z,1.70
2019-06-27T18:05:58.312Z,1.60
2019-06-27T18:08:28.330Z,1.55
2019-06-27T18:10:58.301Z,2.50
2019-06-27T18:13:28.206Z,1.70
2019-06-27T18:15:58.244Z,1.55
2019-06-27T18:18:28.153Z,1.80
2019-06-27T18:20:58.085Z,2.27
2019-06-27T18:23:28.060Z,1.62
2019-06-27T18:25:58.240Z,1.65
2019-06-27T18:28:28.115Z,1.80
2019-06-27T18:31:01.378Z,1.90
2019-06-27T18:33:31.264Z,1.60
2019-06-27T18:36:03.116Z,1.67
2019-06-27T18:38:32.822Z,1.98
2019-06-27T18:41:02.741Z,2.47
2019-06-27T18:43:32.763Z,1.75
2019-06-27T18:46:02.846Z,1.80
2019-06-27T18:48:32.721Z,1.80
2019-06-27T18:51:02.586Z,1.72
2019-06-27T18:53:32.506Z,2.20
2019-06-27T18:56:02.396Z,2.00
2019-06-27T18:58:32.278Z,2.00
2019-06-27T19:01:02.172Z,1.57
2019-06-27T19:03:52.056Z,1.72
2019-06-27T19:06:22.001Z,1.80
2019-06-27T19:08:51.893Z,1.77
2019-06-27T19:11:21.839Z,2.30
2019-06-27T19:13:51.720Z,2.05
2019-06-27T19:16:21.619Z,1.90
2019-06-27T19:18:55.990Z,1.80
2019-06-27T19:21:36.347Z,2.20
2019-06-27T19:24:43.536Z,2.05
2019-06-27T19:27:13.428Z,1.90
2019-06-27T19:29:43.371Z,2.00
2019-06-27T19:32:13.255Z,2.10
2019-06-27T19:34:43.219Z,2.17
2019-06-27T19:37:13.167Z,1.60
2019-06-27T19:39:43.067Z,2.10
2019-06-27T19:42:13.047Z,2.10
2019-06-27T19:44:43.019Z,2.00
2019-06-27T19:47:13.123Z,2.02
2019-06-27T19:49:43.267Z,1.85
2019-06-27T19:52:13.312Z,2.40
2019-06-27T19:54:43.290Z,2.60
2019-06-27T19:57:13.251Z,3.05
2019-06-27T19:59:43.239Z,4.15
2019-06-27T20:02:13.206Z,3.95
2019-06-27T20:04:43.090Z,1.90
2019-06-27T20:07:12.982Z,3.25
2019-06-27T20:09:43.081Z,3.25
2019-06-27T20:12:12.950Z,2.62
2019-06-27T20:14:42.851Z,2.47
2019-06-27T20:17:12.724Z,2.12
2019-06-27T20:19:42.618Z,5.45
2019-06-27T20:22:12.516Z,3.60
2019-06-27T20:24:42.390Z,3.27
2019-06-27T20:27:12.384Z,3.65
2019-06-27T20:29:42.247Z,4.62
2019-06-27T20:32:12.246Z,3.80
2019-06-27T20:34:42.155Z,3.17
2019-06-27T20:37:12.069Z,3.50
2019-06-27T20:39:41.983Z,3.22
2019-06-27T20:42:11.919Z,2.62
2019-06-27T20:44:41.811Z,2.77
2019-06-27T20:47:11.679Z,2.62
2019-06-27T20:49:41.552Z,2.67
2019-06-27T20:52:11.466Z,2.50
2019-06-27T20:54:41.355Z,2.35
2019-06-27T20:57:11.297Z,2.62
2019-06-27T20:59:41.207Z,2.80
2019-06-27T21:02:11.170Z,2.47
2019-06-27T21:04:41.061Z,3.00
2019-06-27T21:07:10.951Z,2.80
2019-06-27T21:09:40.855Z,2.60
2019-06-27T21:12:10.731Z,3.00
2019-06-27T21:14:40.604Z,2.50
2019-06-27T21:17:10.527Z,2.50
2019-06-27T21:19:39.976Z,2.35
2019-06-27T21:22:09.295Z,2.58
2019-06-27T21:24:38.678Z,2.37
2019-06-27T21:27:08.042Z,2.67
2019-06-27T21:29:37.359Z,2.45
2019-06-27T21:32:06.689Z,2.45
2019-06-27T21:34:36.024Z,2.65
2019-06-27T21:37:05.524Z,2.55
2019-06-27T21:39:34.872Z,2.45
2019-06-27T21:42:04.480Z,2.52
2019-06-27T21:44:33.849Z,2.95
2019-06-27T21:47:03.173Z,2.77
2019-06-27T21:49:32.486Z,2.72
2019-06-27T21:52:01.862Z,2.50
2019-06-27T21:54:31.251Z,2.40
2019-06-27T21:57:00.998Z,2.67
2019-06-27T21:59:30.413Z,2.70
2019-06-27T22:01:59.832Z,2.83
2019-06-27T22:04:30.597Z,3.55
2019-06-27T22:07:00.051Z,5.03
2019-06-27T22:09:29.445Z,7.22
2019-06-27T22:11:58.880Z,46.00
2019-06-27T22:14:28.260Z,30.12
2019-06-27T22:16:57.788Z,22.27
2019-06-27T22:19:27.283Z,26.77
2019-06-27T22:21:56.838Z,16.07
2019-06-27T22:24:26.216Z,18.37
2019-06-27T22:26:55.619Z,13.70
2019-06-27T22:29:24.980Z,8.23
2019-06-27T22:31:54.581Z,6.90
2019-06-27T22:34:24.039Z,10.82
2019-06-27T22:37:01.442Z,6.55
2019-06-27T22:39:48.897Z,5.80
2019-06-27T22:42:35.972Z,5.75
2019-06-27T22:45:23.576Z,7.05
2019-06-27T22:48:10.652Z,4.25
2019-06-27T22:51:05.604Z,4.12
2019-06-27T22:53:43.547Z,4.60
2019-06-27T22:56:12.931Z,3.95
2019-06-27T22:58:42.315Z,4.92
2019-06-27T23:01:11.773Z,3.85
2019-06-27T23:03:41.116Z,4.30
2019-06-27T23:06:10.559Z,3.77
2019-06-27T23:08:39.990Z,4.37
2019-06-27T23:11:09.403Z,3.22
2019-06-27T23:13:38.755Z,2.70
2019-06-27T23:16:08.094Z,11.88
2019-06-27T23:18:37.458Z,19.67
2019-06-27T23:21:06.765Z,16.10
2019-06-27T23:23:36.105Z,10.68
2019-06-27T23:26:05.459Z,8.85
2019-06-27T23:28:34.747Z,16.85
2019-06-27T23:31:04.067Z,23.52
2019-06-27T23:33:33.487Z,13.40
2019-06-27T23:36:02.823Z,7.40
2019-06-27T23:38:32.152Z,6.70
2019-06-27T23:41:01.473Z,9.95
2019-06-27T23:43:30.839Z,18.52
2019-06-27T23:46:00.182Z,29.27
2019-06-27T23:48:29.527Z,19.65
2019-06-27T23:50:58.884Z,5.80
2019-06-27T23:53:28.206Z,5.40
2019-06-27T23:55:57.571Z,3.72
2019-06-27T23:58:26.991Z,3.15
